Terminal Aerodrome Forecast
Issued by NWS

Home | Current Version | Previous Version | Text Only | Print | Product List | Glossary On
Versions: 1 2 3 4 5 6 7 8 9 10 11 12 13 14 15 16
282
FTAK31 PAJN 142325
TAFASI
TAF
PASI 142325Z 1500/1524 20010G19KT 6SM -SHRA BKN020 OVC035
      WS020/22030KT
     FM150300 20008KT P6SM -SHRA SCT025 OVC040
     FM151300 16008KT P6SM VCSH SCT025 OVC050=

USA.gov is the U.S. government's official web portal to all federal, state and local government web resources and services.